Humidity-temperature Sensor

Selected Measurement Type: Relative Humidity

 
Relative Humidity [%]     6 entries per hour
Showing data from 7/24/2020 (00:00:00 Z) to 7/17/2020 (00:01:00 Z)
Previous Next [ Day | 3-Days | 7-Days ]
First Last
Prev [ Day | 3-Days | 7-Days ] Next
First Last

Start Time:     :
End Time:     :     
Time (in GMT) :00 :50 :40 :30 :20 :10
Previous Next [ Day | 3-Days | 7-Days ]
First Last
Prev [ Day | 3-Days | 7-Days ] Next
First Last


123 => good data
MM => data is determined as missing
-- => data not received/configured
Back to Top Back to Top
7/24/2020 00:00 to 23:10 84.30 85.80 86.59 83.76 85.59 89.69
7/23/2020 23:00 to 22:10 89.19 86.44 85.18 80.79 79.65 76.14
7/23/2020 22:00 to 21:10 79.02 78.71 83.64 86.07 88.61 84.95
7/23/2020 21:00 to 20:10 81.87 81.31 82.81 80.71 81.48 83.37
7/23/2020 20:00 to 19:10 85.90 86.84 87.13 87.17 87.03 85.76
7/23/2020 19:00 to 18:10 83.91 82.83 82.25 82.77 84.57 85.18
7/23/2020 18:00 to 17:10 85.28 85.11 83.81 85.97 87.13 86.84
7/23/2020 17:00 to 16:10 87.42 86.88 86.84 84.53 79.61 79.90
7/23/2020 16:00 to 15:10 80.60 85.59 86.01 86.49 86.13 85.53
7/23/2020 15:00 to 14:10 85.05 85.70 86.05 86.38 85.49 84.43
7/23/2020 14:00 to 13:10 80.19 82.68 85.26 83.81 82.56 81.52
7/23/2020 13:00 to 12:10 79.50 79.02 76.41 75.60 75.97 77.03
7/23/2020 12:00 to 11:10 78.30 78.48 78.94 80.50 80.81 81.58
7/23/2020 11:00 to 10:10 81.62 81.39 80.36 80.94 82.54 81.96
7/23/2020 10:00 to 9:10 82.10 82.91 82.35 82.20 82.16 83.47
7/23/2020 09:00 to 8:10 83.62 82.35 82.95 82.08 81.23 82.85
7/23/2020 08:00 to 7:10 82.25 82.75 80.77 79.48 80.13 80.21
7/23/2020 07:00 to 6:10 80.94 80.77 82.16 80.85 81.73 81.21
7/23/2020 06:00 to 5:10 81.08 82.62 83.12 83.97 83.39 82.43
7/23/2020 05:00 to 4:10 81.98 83.08 83.06 85.84 85.97 86.82
7/23/2020 04:00 to 3:10 86.88 84.28 83.49 84.24 84.72 83.60
7/23/2020 03:00 to 2:10 84.16 87.15 87.59 84.97 86.78 87.28
7/23/2020 02:00 to 1:10 86.42 86.26 86.24 85.11 79.40 79.38
7/23/2020 01:00 to 0:10 79.84 78.67 79.54 77.55 78.05 78.03
7/23/2020 00:00 to 23:10 77.28 76.95 77.51 76.72 76.32 75.37
7/22/2020 23:00 to 22:10 78.01 77.90 76.70 77.05 76.88 77.59
7/22/2020 22:00 to 21:10 77.82 77.15 77.49 77.36 76.84 77.61
7/22/2020 21:00 to 20:10 75.91 75.57 75.55 75.45 75.85 75.28
7/22/2020 20:00 to 19:10 76.99 75.41 75.76 76.47 76.09 77.65
7/22/2020 19:00 to 18:10 76.09 76.03 77.80 75.85 75.89 76.55
7/22/2020 18:00 to 17:10 77.61 75.76 77.36 75.95 76.61 75.80
7/22/2020 17:00 to 16:10 74.64 73.75 73.02 72.91 73.04 73.87
7/22/2020 16:00 to 15:10 73.25 75.62 74.93 73.68 73.43 73.21
7/22/2020 15:00 to 14:10 71.71 72.02 72.00 72.27 73.91 73.87
7/22/2020 14:00 to 13:10 74.54 72.64 74.68 74.39 75.85 76.70
7/22/2020 13:00 to 12:10 78.82 77.65 76.09 76.76 77.13 76.70
7/22/2020 12:00 to 11:10 76.28 78.15 77.51 77.57 76.84 76.59
7/22/2020 11:00 to 10:10 77.11 78.26 77.86 77.78 78.42 79.36
7/22/2020 10:00 to 9:10 81.79 80.13 80.27 77.69 75.89 76.07
7/22/2020 09:00 to 8:10 75.12 74.04 76.39 77.40 76.61 75.28
7/22/2020 08:00 to 7:10 74.39 76.76 76.07 75.20 74.51 77.49
7/22/2020 07:00 to 6:10 78.44 77.32 78.75 79.38 80.98 79.09
7/22/2020 06:00 to 5:10 79.42 79.71 81.98 82.56 80.85 80.31
7/22/2020 05:00 to 4:10 79.34 79.63 80.52 79.86 81.50 81.06
7/22/2020 04:00 to 3:10 82.02 80.17 78.65 78.69 79.23 79.54
7/22/2020 03:00 to 2:10 79.71 79.77 80.52 78.80 81.10 81.06
7/22/2020 02:00 to 1:10 82.18 82.93 81.62 80.23 80.38 81.75
7/22/2020 01:00 to 0:10 81.75 81.44 81.23 80.13 79.86 80.08
7/22/2020 00:00 to 23:10 79.61 81.04 80.94 80.19 79.02 80.42
7/21/2020 23:00 to 22:10 80.15 80.77 80.87 80.81 82.02 81.71
7/21/2020 22:00 to 21:10 81.46 81.41 80.44 80.11 83.51 83.70
7/21/2020 21:00 to 20:10 84.68 84.24 83.35 82.70 83.76 83.29
7/21/2020 20:00 to 19:10 83.14 82.54 81.91 79.92 78.73 75.87
7/21/2020 19:00 to 18:10 74.27 75.18 75.53 74.93 76.45 77.55
7/21/2020 18:00 to 17:10 80.38 81.71 81.85 81.66 83.85 82.75
7/21/2020 17:00 to 16:10 82.27 82.64 84.49 84.80 83.29 81.89
7/21/2020 16:00 to 15:10 80.08 77.57 77.57 81.46 82.89 82.45
7/21/2020 15:00 to 14:10 80.54 80.13 80.50 80.00 79.54 81.48
7/21/2020 14:00 to 13:10 80.73 80.04 80.58 80.04 78.24 82.75
7/21/2020 13:00 to 12:10 85.80 86.07 85.26 82.33 80.48 79.25
7/21/2020 12:00 to 11:10 79.79 81.19 81.93 81.39 84.12 85.76
7/21/2020 11:00 to 10:10 83.58 82.85 82.95 82.04 79.17 77.59
7/21/2020 10:00 to 9:10 81.81 83.74 84.05 82.62 82.56 83.51
7/21/2020 09:00 to 8:10 83.22 80.63 80.58 83.60 82.14 81.29
7/21/2020 08:00 to 7:10 81.04 80.60 80.73 82.99 83.60 86.34
7/21/2020 07:00 to 6:10 87.59 84.91 84.03 84.53 83.97 82.35
7/21/2020 06:00 to 5:10 82.72 82.29 81.06 80.65 82.27 82.06
7/21/2020 05:00 to 4:10 80.71 78.96 79.27 77.13 79.63 79.59
7/21/2020 04:00 to 3:10 83.22 80.56 75.26 80.58 84.45 84.51
7/21/2020 03:00 to 2:10 84.01 82.87 82.89 82.31 80.48 80.65
7/21/2020 02:00 to 1:10 79.07 79.32 80.04 80.75 79.88 80.25
7/21/2020 01:00 to 0:10 79.57 80.00 79.02 78.92 78.19 79.59
7/21/2020 00:00 to 23:10 83.74 83.74 83.43 83.62 83.37 82.00
7/20/2020 23:00 to 22:10 80.83 81.54 83.95 82.39 82.79 81.83
7/20/2020 22:00 to 21:10 82.10 83.45 83.87 84.05 85.49 85.84
7/20/2020 21:00 to 20:10 83.39 84.05 83.85 82.89 81.64 81.66
7/20/2020 20:00 to 19:10 82.75 81.14 80.11 80.96 81.98 81.89
7/20/2020 19:00 to 18:10 81.37 83.22 79.23 76.72 79.34 80.13
7/20/2020 18:00 to 17:10 82.99 83.41 83.89 83.43 84.14 83.85
7/20/2020 17:00 to 16:10 82.35 81.75 78.71 80.67 82.56 82.85
7/20/2020 16:00 to 15:10 82.83 82.06 81.25 81.52 83.20 84.84
7/20/2020 15:00 to 14:10 85.92 86.15 84.99 81.79 82.83 85.20
7/20/2020 14:00 to 13:10 84.53 81.87 81.14 83.53 84.76 84.57
7/20/2020 13:00 to 12:10 86.30 88.07 86.03 84.41 83.43 85.41
7/20/2020 12:00 to 11:10 84.26 84.89 83.58 83.29 83.37 83.41
7/20/2020 11:00 to 10:10 82.75 82.29 82.87 83.35 82.41 82.89
7/20/2020 10:00 to 9:10 82.20 82.70 83.49 82.64 83.35 83.99
7/20/2020 09:00 to 8:10 83.60 82.66 84.20 85.24 84.89 85.18
7/20/2020 08:00 to 7:10 85.55 88.11 87.59 85.70 84.26 83.47
7/20/2020 07:00 to 6:10 83.56 83.20 84.45 85.88 85.80 85.30
7/20/2020 06:00 to 5:10 85.82 85.70 86.05 87.21 86.01 84.30
7/20/2020 05:00 to 4:10 84.62 83.97 83.35 83.22 84.03 85.20
7/20/2020 04:00 to 3:10 84.68 84.87 84.41 83.68 83.72 84.51
7/20/2020 03:00 to 2:10 83.53 83.81 84.57 84.51 82.58 82.89
7/20/2020 02:00 to 1:10 82.95 84.12 86.03 85.38 85.09 84.87
7/20/2020 01:00 to 0:10 84.16 83.51 83.95 85.30 84.89 83.33
7/20/2020 00:00 to 23:10 83.12 84.57 83.33 83.20 83.20 84.55
7/19/2020 23:00 to 22:10 85.20 84.74 85.68 87.01 85.86 84.74
7/19/2020 22:00 to 21:10 84.72 85.01 84.82 85.22 85.53 85.68
7/19/2020 21:00 to 20:10 84.89 85.53 86.53 87.67 86.92 86.98
7/19/2020 20:00 to 19:10 86.82 86.94 85.92 84.62 83.53 83.78
7/19/2020 19:00 to 18:10 84.22 83.51 84.16 84.41 83.76 83.62
7/19/2020 18:00 to 17:10 84.14 84.35 84.64 84.97 85.53 85.72
7/19/2020 17:00 to 16:10 85.63 85.36 84.89 84.80 84.35 84.55
7/19/2020 16:00 to 15:10 85.57 86.07 86.28 85.92 86.05 85.55
7/19/2020 15:00 to 14:10 85.32 85.14 84.76 83.87 83.70 83.68
7/19/2020 14:00 to 13:10 82.41 83.26 84.32 86.07 86.57 87.50
7/19/2020 13:00 to 12:10 86.53 86.88 86.69 86.47 87.23 87.90
7/19/2020 12:00 to 11:10 89.31 90.35 90.25 90.08 89.71 90.04
7/19/2020 11:00 to 10:10 89.89 89.42 88.86 89.04 90.39 91.33
7/19/2020 10:00 to 9:10 91.87 91.93 91.56 91.31 91.64 91.60
7/19/2020 09:00 to 8:10 91.62 91.89 92.91 93.45 93.66 93.72
7/19/2020 08:00 to 7:10 93.80 93.89 93.74 93.30 91.64 89.50
7/19/2020 07:00 to 6:10 89.48 88.79 88.90 88.86 89.54 90.75
7/19/2020 06:00 to 5:10 90.60 89.94 89.94 89.44 88.65 87.77
7/19/2020 05:00 to 4:10 88.27 88.94 88.27 88.63 88.73 88.77
7/19/2020 04:00 to 3:10 88.81 88.50 88.50 88.59 88.88 88.75
7/19/2020 03:00 to 2:10 88.69 89.00 89.58 89.17 88.61 88.94
7/19/2020 02:00 to 1:10 88.44 88.46 88.04 87.92 87.84 86.74
7/19/2020 01:00 to 0:10 86.30 86.34 85.45 84.91 84.78 84.95
7/19/2020 00:00 to 23:10 84.68 85.20 85.26 85.24 85.53 87.17
7/18/2020 23:00 to 22:10 87.34 87.28 86.63 86.28 86.30 86.30
7/18/2020 22:00 to 21:10 85.41 85.76 85.76 85.86 84.41 84.93
7/18/2020 21:00 to 20:10 86.30 86.01 87.55 88.29 86.42 86.69
7/18/2020 20:00 to 19:10 86.42 85.61 84.82 84.08 85.41 85.72
7/18/2020 19:00 to 18:10 85.84 84.76 83.99 82.81 81.46 81.31
7/18/2020 18:00 to 17:10 82.02 81.91 80.85 80.46 81.50 81.02
7/18/2020 17:00 to 16:10 80.29 82.66 84.22 84.99 85.53 84.55
7/18/2020 16:00 to 15:10 83.99 82.45 81.33 82.85 82.83 81.56
7/18/2020 15:00 to 14:10 80.81 80.73 82.04 82.54 83.31 83.68
7/18/2020 14:00 to 13:10 83.22 84.30 85.16 84.01 82.91 81.17
7/18/2020 13:00 to 12:10 81.46 82.10 85.51 86.96 87.15 87.88
7/18/2020 12:00 to 11:10 88.09 87.48 88.50 87.19 86.47 88.23
7/18/2020 11:00 to 10:10 88.21 88.11 87.98 87.77 87.36 87.19
7/18/2020 10:00 to 9:10 87.30 87.34 87.53 86.78 86.42 86.94
7/18/2020 09:00 to 8:10 86.49 85.61 84.89 85.78 85.92 86.38
7/18/2020 08:00 to 7:10 86.69 86.32 85.61 85.90 86.71 88.04
7/18/2020 07:00 to 6:10 87.50 86.86 86.44 86.88 86.24 86.05
7/18/2020 06:00 to 5:10 85.53 86.07 87.73 86.15 85.99 84.80
7/18/2020 05:00 to 4:10 84.64 83.78 83.16 83.76 82.54 83.60
7/18/2020 04:00 to 3:10 84.37 84.49 84.99 85.51 88.34 90.29
7/18/2020 03:00 to 2:10 91.83 90.00 89.29 84.51 84.47 83.47
7/18/2020 02:00 to 1:10 83.41 83.97 84.22 83.72 82.08 83.06
7/18/2020 01:00 to 0:10 82.14 82.41 82.10 80.85 81.75 82.56
7/18/2020 00:00 to 23:10 82.75 83.10 81.77 81.89 81.79 81.87
7/17/2020 23:00 to 22:10 81.41 79.13 79.54 78.94 78.86 79.44
7/17/2020 22:00 to 21:10 78.13 78.38 78.63 79.90 80.65 80.36
7/17/2020 21:00 to 20:10 81.04 79.77 79.57 79.38 81.33 81.19
7/17/2020 20:00 to 19:10 83.45 82.56 82.00 83.87 83.83 82.93
7/17/2020 19:00 to 18:10 82.35 82.02 83.53 82.68 82.12 81.98
7/17/2020 18:00 to 17:10 81.73 83.97 85.59 84.99 84.80 85.76
7/17/2020 17:00 to 16:10 82.41 81.52 80.87 80.19 80.21 80.00
7/17/2020 16:00 to 15:10 80.27 78.94 79.15 77.05 78.71 78.75
7/17/2020 15:00 to 14:10 79.00 79.00 78.92 78.67 79.34 80.40
7/17/2020 14:00 to 13:10 81.69 81.31 82.25 81.31 79.96 81.31
7/17/2020 13:00 to 12:10 81.75 82.04 81.33 82.10 81.64 83.06
7/17/2020 12:00 to 11:10 82.02 83.08 83.51 81.93 83.18 82.50
7/17/2020 11:00 to 10:10 81.91 81.12 82.64 82.37 83.04 81.14
7/17/2020 10:00 to 9:10 81.91 82.56 82.12 83.70 82.70 82.52
7/17/2020 09:00 to 8:10 81.81 83.02 84.28 82.87 82.60 82.83
7/17/2020 08:00 to 7:10 81.58 81.64 81.31 80.67 80.29 80.83
7/17/2020 07:00 to 6:10 81.89 82.23 82.12 80.81 80.92 79.21
7/17/2020 06:00 to 5:10 79.52 81.12 82.45 80.06 78.42 80.02
7/17/2020 05:00 to 4:10 78.80 77.57 77.34 79.59 78.94 78.92
7/17/2020 04:00 to 3:10 79.57 78.32 78.73 79.44 77.92 78.69
7/17/2020 03:00 to 2:10 80.40 82.29 83.06 82.23 81.60 82.31
7/17/2020 02:00 to 1:10 82.00 82.04 83.43 83.26 81.73 83.97
7/17/2020 01:00 to 0:10 83.95 83.29 85.11 84.57 83.68 84.43